sensor_id;sensor_type;location;lat;lon;timestamp;P1;durP1;ratioP1;P2;durP2;ratioP2
30147;SDS011;16960;49.404;8.248;2022-11-04T00:01:09;2.37;;;2.17;;
30147;SDS011;16960;49.404;8.248;2022-11-04T00:03:36;2.23;;;1.87;;
30147;SDS011;16960;49.404;8.248;2022-11-04T00:06:02;2.43;;;1.80;;
30147;SDS011;16960;49.404;8.248;2022-11-04T00:08:31;1.80;;;1.70;;
30147;SDS011;16960;49.404;8.248;2022-11-04T00:10:59;1.90;;;1.80;;
30147;SDS011;16960;49.404;8.248;2022-11-04T00:13:44;3.30;;;2.00;;
30147;SDS011;16960;49.404;8.248;2022-11-04T00:16:11;1.97;;;1.80;;
30147;SDS011;16960;49.404;8.248;2022-11-04T00:18:56;2.70;;;2.00;;
30147;SDS011;16960;49.404;8.248;2022-11-04T00:21:24;2.33;;;1.50;;
30147;SDS011;16960;49.404;8.248;2022-11-04T00:24:10;3.63;;;1.93;;
30147;SDS011;16960;49.404;8.248;2022-11-04T00:26:56;2.63;;;1.47;;
30147;SDS011;16960;49.404;8.248;2022-11-04T00:29:40;2.37;;;1.67;;
30147;SDS011;16960;49.404;8.248;2022-11-04T00:32:07;1.70;;;1.60;;
30147;SDS011;16960;49.404;8.248;2022-11-04T00:34:52;2.87;;;2.10;;
30147;SDS011;16960;49.404;8.248;2022-11-04T00:37:19;1.60;;;1.50;;
30147;SDS011;16960;49.404;8.248;2022-11-04T00:39:47;2.03;;;1.67;;
30147;SDS011;16960;49.404;8.248;2022-11-04T00:42:14;1.53;;;1.30;;
30147;SDS011;16960;49.404;8.248;2022-11-04T00:44:41;1.83;;;1.47;;
30147;SDS011;16960;49.404;8.248;2022-11-04T00:47:08;1.67;;;1.10;;
30147;SDS011;16960;49.404;8.248;2022-11-04T00:49:35;2.00;;;1.80;;
30147;SDS011;16960;49.404;8.248;2022-11-04T00:52:02;1.70;;;1.60;;
30147;SDS011;16960;49.404;8.248;2022-11-04T00:54:29;1.47;;;1.37;;
30147;SDS011;16960;49.404;8.248;2022-11-04T00:56:57;1.47;;;1.37;;
30147;SDS011;16960;49.404;8.248;2022-11-04T00:59:24;1.43;;;1.33;;
30147;SDS011;16960;49.404;8.248;2022-11-04T01:01:51;2.33;;;1.50;;
30147;SDS011;16960;49.404;8.248;2022-11-04T01:04:18;2.17;;;1.60;;
30147;SDS011;16960;49.404;8.248;2022-11-04T01:06:45;1.50;;;1.40;;
30147;SDS011;16960;49.404;8.248;2022-11-04T01:09:12;1.50;;;1.40;;
30147;SDS011;16960;49.404;8.248;2022-11-04T01:11:39;2.40;;;1.40;;
30147;SDS011;16960;49.404;8.248;2022-11-04T01:14:07;1.33;;;1.23;;
30147;SDS011;16960;49.404;8.248;2022-11-04T01:16:34;1.43;;;1.33;;
30147;SDS011;16960;49.404;8.248;2022-11-04T01:19:01;1.33;;;1.23;;
30147;SDS011;16960;49.404;8.248;2022-11-04T01:21:28;1.10;;;1.00;;
30147;SDS011;16960;49.404;8.248;2022-11-04T01:23:55;1.40;;;1.30;;
30147;SDS011;16960;49.404;8.248;2022-11-04T01:26:23;1.17;;;1.07;;
30147;SDS011;16960;49.404;8.248;2022-11-04T01:28:51;1.80;;;1.40;;
30147;SDS011;16960;49.404;8.248;2022-11-04T01:31:21;1.50;;;1.07;;
30147;SDS011;16960;49.404;8.248;2022-11-04T01:33:49;1.60;;;1.50;;
30147;SDS011;16960;49.404;8.248;2022-11-04T01:36:18;1.70;;;1.60;;
30147;SDS011;16960;49.404;8.248;2022-11-04T01:38:45;1.50;;;1.40;;
30147;SDS011;16960;49.404;8.248;2022-11-04T01:41:15;1.50;;;1.40;;
30147;SDS011;16960;49.404;8.248;2022-11-04T01:47:04;1.37;;;1.27;;
30147;SDS011;16960;49.404;8.248;2022-11-04T01:49:34;1.30;;;1.20;;
30147;SDS011;16960;49.404;8.248;2022-11-04T01:52:04;1.60;;;1.50;;
30147;SDS011;16960;49.404;8.248;2022-11-04T01:54:34;1.53;;;1.43;;
30147;SDS011;16960;49.404;8.248;2022-11-04T01:57:04;1.20;;;1.13;;
30147;SDS011;16960;49.404;8.248;2022-11-04T01:59:37;1.10;;;1.10;;
30147;SDS011;16960;49.404;8.248;2022-11-04T02:02:07;1.53;;;1.03;;
30147;SDS011;16960;49.404;8.248;2022-11-04T02:04:34;1.50;;;1.40;;
30147;SDS011;16960;49.404;8.248;2022-11-04T02:07:03;2.00;;;1.33;;
30147;SDS011;16960;49.404;8.248;2022-11-04T02:09:31;1.80;;;1.07;;
30147;SDS011;16960;49.404;8.248;2022-11-04T02:12:00;1.20;;;0.97;;
30147;SDS011;16960;49.404;8.248;2022-11-04T02:14:44;1.83;;;1.37;;
30147;SDS011;16960;49.404;8.248;2022-11-04T02:17:19;1.40;;;1.30;;
30147;SDS011;16960;49.404;8.248;2022-11-04T02:19:58;1.13;;;1.00;;
30147;SDS011;16960;49.404;8.248;2022-11-04T02:22:54;1.37;;;1.07;;
30147;SDS011;16960;49.404;8.248;2022-11-04T02:25:51;1.10;;;0.90;;
30147;SDS011;16960;49.404;8.248;2022-11-04T02:28:48;1.73;;;1.30;;
30147;SDS011;16960;49.404;8.248;2022-11-04T02:31:42;1.63;;;1.10;;
30147;SDS011;16960;49.404;8.248;2022-11-04T02:34:17;1.10;;;1.00;;
30147;SDS011;16960;49.404;8.248;2022-11-04T02:36:55;1.40;;;1.10;;
30147;SDS011;16960;49.404;8.248;2022-11-04T02:39:33;1.77;;;1.30;;
30147;SDS011;16960;49.404;8.248;2022-11-04T02:42:08;1.20;;;1.10;;
30147;SDS011;16960;49.404;8.248;2022-11-04T02:44:42;2.47;;;1.13;;
30147;SDS011;16960;49.404;8.248;2022-11-04T02:47:14;1.00;;;0.90;;
30147;SDS011;16960;49.404;8.248;2022-11-04T02:49:44;1.10;;;0.77;;
30147;SDS011;16960;49.404;8.248;2022-11-04T02:52:20;1.10;;;1.00;;
30147;SDS011;16960;49.404;8.248;2022-11-04T02:54:55;2.03;;;1.17;;
30147;SDS011;16960;49.404;8.248;2022-11-04T02:57:26;1.20;;;1.10;;
30147;SDS011;16960;49.404;8.248;2022-11-04T02:59:58;1.33;;;0.80;;
30147;SDS011;16960;49.404;8.248;2022-11-04T03:02:29;1.30;;;0.83;;
30147;SDS011;16960;49.404;8.248;2022-11-04T03:05:00;2.03;;;1.70;;
30147;SDS011;16960;49.404;8.248;2022-11-04T03:07:30;1.83;;;1.30;;
30147;SDS011;16960;49.404;8.248;2022-11-04T03:10:03;2.97;;;0.90;;
30147;SDS011;16960;49.404;8.248;2022-11-04T03:12:35;1.47;;;0.97;;
30147;SDS011;16960;49.404;8.248;2022-11-04T03:15:09;1.80;;;1.27;;
30147;SDS011;16960;49.404;8.248;2022-11-04T03:17:43;1.37;;;0.80;;
30147;SDS011;16960;49.404;8.248;2022-11-04T03:20:20;1.40;;;1.00;;
30147;SDS011;16960;49.404;8.248;2022-11-04T03:22:51;1.47;;;0.83;;
30147;SDS011;16960;49.404;8.248;2022-11-04T03:25:23;1.30;;;1.10;;
30147;SDS011;16960;49.404;8.248;2022-11-04T03:27:53;1.73;;;1.27;;
30147;SDS011;16960;49.404;8.248;2022-11-04T03:30:26;3.23;;;1.10;;
30147;SDS011;16960;49.404;8.248;2022-11-04T03:33:02;1.47;;;1.10;;
30147;SDS011;16960;49.404;8.248;2022-11-04T03:35:34;0.90;;;0.80;;
30147;SDS011;16960;49.404;8.248;2022-11-04T03:38:01;1.40;;;1.30;;
30147;SDS011;16960;49.404;8.248;2022-11-04T03:40:27;1.70;;;1.07;;
30147;SDS011;16960;49.404;8.248;2022-11-04T03:42:55;1.47;;;0.97;;
30147;SDS011;16960;49.404;8.248;2022-11-04T03:45:26;1.70;;;1.20;;
30147;SDS011;16960;49.404;8.248;2022-11-04T03:47:54;1.13;;;1.03;;
30147;SDS011;16960;49.404;8.248;2022-11-04T03:50:22;2.13;;;1.10;;
30147;SDS011;16960;49.404;8.248;2022-11-04T03:52:53;1.83;;;0.90;;
30147;SDS011;16960;49.404;8.248;2022-11-04T03:55:22;1.10;;;1.00;;
30147;SDS011;16960;49.404;8.248;2022-11-04T03:57:54;1.23;;;0.97;;
30147;SDS011;16960;49.404;8.248;2022-11-04T04:00:28;0.77;;;0.70;;
30147;SDS011;16960;49.404;8.248;2022-11-04T04:03:06;1.67;;;1.07;;
30147;SDS011;16960;49.404;8.248;2022-11-04T04:05:40;1.33;;;1.13;;
30147;SDS011;16960;49.404;8.248;2022-11-04T04:08:14;1.80;;;1.00;;
30147;SDS011;16960;49.404;8.248;2022-11-04T04:10:48;0.80;;;0.80;;
30147;SDS011;16960;49.404;8.248;2022-11-04T04:13:26;1.37;;;1.03;;
30147;SDS011;16960;49.404;8.248;2022-11-04T04:16:03;0.80;;;0.80;;
30147;SDS011;16960;49.404;8.248;2022-11-04T04:18:35;1.50;;;0.97;;
30147;SDS011;16960;49.404;8.248;2022-11-04T04:21:05;1.70;;;0.90;;
30147;SDS011;16960;49.404;8.248;2022-11-04T04:23:36;1.20;;;0.97;;
30147;SDS011;16960;49.404;8.248;2022-11-04T04:26:22;1.20;;;0.80;;
30147;SDS011;16960;49.404;8.248;2022-11-04T04:29:07;1.10;;;1.00;;
30147;SDS011;16960;49.404;8.248;2022-11-04T04:31:37;1.00;;;0.90;;
30147;SDS011;16960;49.404;8.248;2022-11-04T04:34:18;1.50;;;1.00;;
30147;SDS011;16960;49.404;8.248;2022-11-04T04:36:49;1.27;;;0.77;;
30147;SDS011;16960;49.404;8.248;2022-11-04T04:39:21;2.20;;;0.93;;
30147;SDS011;16960;49.404;8.248;2022-11-04T04:42:07;1.00;;;0.90;;
30147;SDS011;16960;49.404;8.248;2022-11-04T04:44:52;1.43;;;0.80;;
30147;SDS011;16960;49.404;8.248;2022-11-04T04:47:28;0.70;;;0.70;;
30147;SDS011;16960;49.404;8.248;2022-11-04T04:49:59;1.17;;;1.07;;
30147;SDS011;16960;49.404;8.248;2022-11-04T04:52:27;0.97;;;0.80;;
30147;SDS011;16960;49.404;8.248;2022-11-04T04:54:57;1.00;;;0.90;;
30147;SDS011;16960;49.404;8.248;2022-11-04T04:57:24;0.80;;;0.80;;
30147;SDS011;16960;49.404;8.248;2022-11-04T04:59:51;1.17;;;0.97;;
30147;SDS011;16960;49.404;8.248;2022-11-04T05:02:18;0.80;;;0.70;;
30147;SDS011;16960;49.404;8.248;2022-11-04T05:04:46;1.40;;;0.83;;
30147;SDS011;16960;49.404;8.248;2022-11-04T05:07:13;0.97;;;0.83;;
30147;SDS011;16960;49.404;8.248;2022-11-04T05:09:40;1.07;;;0.90;;
30147;SDS011;16960;49.404;8.248;2022-11-04T05:12:07;0.87;;;0.80;;
30147;SDS011;16960;49.404;8.248;2022-11-04T05:14:34;0.70;;;0.60;;
30147;SDS011;16960;49.404;8.248;2022-11-04T05:17:01;1.63;;;1.03;;
30147;SDS011;16960;49.404;8.248;2022-11-04T05:19:28;1.00;;;0.80;;
30147;SDS011;16960;49.404;8.248;2022-11-04T05:21:56;1.03;;;0.93;;
30147;SDS011;16960;49.404;8.248;2022-11-04T05:24:23;1.50;;;0.90;;
30147;SDS011;16960;49.404;8.248;2022-11-04T05:26:50;1.10;;;0.97;;
30147;SDS011;16960;49.404;8.248;2022-11-04T05:29:17;1.27;;;1.00;;
30147;SDS011;16960;49.404;8.248;2022-11-04T05:31:44;0.90;;;0.70;;
30147;SDS011;16960;49.404;8.248;2022-11-04T05:34:11;0.93;;;0.87;;
30147;SDS011;16960;49.404;8.248;2022-11-04T05:36:39;1.00;;;0.80;;
30147;SDS011;16960;49.404;8.248;2022-11-04T05:39:09;1.30;;;0.80;;
30147;SDS011;16960;49.404;8.248;2022-11-04T05:41:37;0.80;;;0.80;;
30147;SDS011;16960;49.404;8.248;2022-11-04T05:44:04;0.80;;;0.67;;
30147;SDS011;16960;49.404;8.248;2022-11-04T05:46:33;1.40;;;1.00;;
30147;SDS011;16960;49.404;8.248;2022-11-04T05:49:00;0.70;;;0.70;;
30147;SDS011;16960;49.404;8.248;2022-11-04T05:51:28;2.00;;;1.13;;
30147;SDS011;16960;49.404;8.248;2022-11-04T05:53:55;1.53;;;1.00;;
30147;SDS011;16960;49.404;8.248;2022-11-04T05:56:23;0.70;;;0.60;;
30147;SDS011;16960;49.404;8.248;2022-11-04T05:58:50;1.53;;;1.07;;
30147;SDS011;16960;49.404;8.248;2022-11-04T06:01:24;3.03;;;0.93;;
30147;SDS011;16960;49.404;8.248;2022-11-04T06:03:54;1.00;;;0.60;;
30147;SDS011;16960;49.404;8.248;2022-11-04T06:06:22;0.80;;;0.70;;
30147;SDS011;16960;49.404;8.248;2022-11-04T06:08:50;1.27;;;0.87;;
30147;SDS011;16960;49.404;8.248;2022-11-04T06:11:18;0.97;;;0.87;;
30147;SDS011;16960;49.404;8.248;2022-11-04T06:13:47;1.73;;;1.40;;
30147;SDS011;16960;49.404;8.248;2022-11-04T06:16:15;1.00;;;0.80;;
30147;SDS011;16960;49.404;8.248;2022-11-04T06:18:42;1.07;;;0.70;;
30147;SDS011;16960;49.404;8.248;2022-11-04T06:21:16;2.20;;;1.07;;
30147;SDS011;16960;49.404;8.248;2022-11-04T06:23:46;1.43;;;1.00;;
30147;SDS011;16960;49.404;8.248;2022-11-04T06:26:14;1.73;;;0.70;;
30147;SDS011;16960;49.404;8.248;2022-11-04T06:28:41;0.70;;;0.70;;
30147;SDS011;16960;49.404;8.248;2022-11-04T06:31:11;1.03;;;0.70;;
30147;SDS011;16960;49.404;8.248;2022-11-04T06:33:39;1.13;;;0.70;;
30147;SDS011;16960;49.404;8.248;2022-11-04T06:36:06;6.30;;;1.00;;
30147;SDS011;16960;49.404;8.248;2022-11-04T06:38:36;4.60;;;0.80;;
30147;SDS011;16960;49.404;8.248;2022-11-04T06:41:03;3.43;;;1.03;;
30147;SDS011;16960;49.404;8.248;2022-11-04T06:43:31;2.33;;;1.07;;
30147;SDS011;16960;49.404;8.248;2022-11-04T06:45:58;2.60;;;0.90;;
30147;SDS011;16960;49.404;8.248;2022-11-04T06:48:27;2.87;;;1.27;;
30147;SDS011;16960;49.404;8.248;2022-11-04T06:50:55;6.10;;;0.90;;
30147;SDS011;16960;49.404;8.248;2022-11-04T06:53:23;2.40;;;0.93;;
30147;SDS011;16960;49.404;8.248;2022-11-04T06:55:50;2.20;;;1.37;;
30147;SDS011;16960;49.404;8.248;2022-11-04T06:58:17;1.80;;;1.00;;
30147;SDS011;16960;49.404;8.248;2022-11-04T07:00:48;3.87;;;1.17;;
30147;SDS011;16960;49.404;8.248;2022-11-04T07:03:16;1.00;;;0.83;;
30147;SDS011;16960;49.404;8.248;2022-11-04T07:05:44;3.00;;;1.20;;
30147;SDS011;16960;49.404;8.248;2022-11-04T07:08:11;1.33;;;0.90;;
30147;SDS011;16960;49.404;8.248;2022-11-04T07:10:38;1.60;;;0.80;;
30147;SDS011;16960;49.404;8.248;2022-11-04T07:13:05;1.50;;;0.83;;
30147;SDS011;16960;49.404;8.248;2022-11-04T07:15:32;1.70;;;0.90;;
30147;SDS011;16960;49.404;8.248;2022-11-04T07:18:00;3.07;;;0.90;;
30147;SDS011;16960;49.404;8.248;2022-11-04T07:20:27;2.77;;;0.97;;
30147;SDS011;16960;49.404;8.248;2022-11-04T07:22:55;1.73;;;0.90;;
30147;SDS011;16960;49.404;8.248;2022-11-04T07:25:22;1.27;;;0.83;;
30147;SDS011;16960;49.404;8.248;2022-11-04T07:27:49;4.47;;;1.30;;
30147;SDS011;16960;49.404;8.248;2022-11-04T07:30:16;4.80;;;1.13;;
30147;SDS011;16960;49.404;8.248;2022-11-04T07:32:44;3.23;;;1.30;;
30147;SDS011;16960;49.404;8.248;2022-11-04T07:35:12;1.83;;;0.80;;
30147;SDS011;16960;49.404;8.248;2022-11-04T07:37:39;1.37;;;0.97;;
30147;SDS011;16960;49.404;8.248;2022-11-04T07:40:08;1.30;;;0.90;;
30147;SDS011;16960;49.404;8.248;2022-11-04T07:42:36;1.30;;;0.90;;
30147;SDS011;16960;49.404;8.248;2022-11-04T07:45:03;1.37;;;1.10;;
30147;SDS011;16960;49.404;8.248;2022-11-04T07:47:30;1.97;;;1.13;;
30147;SDS011;16960;49.404;8.248;2022-11-04T07:49:58;1.50;;;1.03;;
30147;SDS011;16960;49.404;8.248;2022-11-04T07:52:25;3.10;;;1.20;;
30147;SDS011;16960;49.404;8.248;2022-11-04T07:54:52;1.70;;;0.93;;
30147;SDS011;16960;49.404;8.248;2022-11-04T07:57:20;1.00;;;0.90;;
30147;SDS011;16960;49.404;8.248;2022-11-04T07:59:47;1.40;;;1.00;;
30147;SDS011;16960;49.404;8.248;2022-11-04T08:02:14;2.10;;;1.33;;
30147;SDS011;16960;49.404;8.248;2022-11-04T08:04:41;1.00;;;0.90;;
30147;SDS011;16960;49.404;8.248;2022-11-04T08:07:08;1.97;;;1.47;;
30147;SDS011;16960;49.404;8.248;2022-11-04T08:09:35;1.67;;;1.13;;
30147;SDS011;16960;49.404;8.248;2022-11-04T08:12:03;1.63;;;1.13;;
30147;SDS011;16960;49.404;8.248;2022-11-04T08:14:32;3.67;;;1.87;;
30147;SDS011;16960;49.404;8.248;2022-11-04T08:16:59;4.53;;;1.00;;
30147;SDS011;16960;49.404;8.248;2022-11-04T08:19:26;1.70;;;1.13;;
30147;SDS011;16960;49.404;8.248;2022-11-04T08:21:52;1.70;;;1.20;;
30147;SDS011;16960;49.404;8.248;2022-11-04T08:24:19;3.07;;;0.90;;
30147;SDS011;16960;49.404;8.248;2022-11-04T08:26:46;1.40;;;0.90;;
30147;SDS011;16960;49.404;8.248;2022-11-04T08:29:13;1.93;;;1.13;;
30147;SDS011;16960;49.404;8.248;2022-11-04T08:31:42;4.90;;;1.07;;
30147;SDS011;16960;49.404;8.248;2022-11-04T08:34:09;2.00;;;1.30;;
30147;SDS011;16960;49.404;8.248;2022-11-04T08:36:36;1.83;;;1.00;;
30147;SDS011;16960;49.404;8.248;2022-11-04T08:39:05;2.90;;;1.10;;
30147;SDS011;16960;49.404;8.248;2022-11-04T08:41:33;3.67;;;0.93;;
30147;SDS011;16960;49.404;8.248;2022-11-04T08:44:01;2.00;;;1.37;;
30147;SDS011;16960;49.404;8.248;2022-11-04T08:46:30;1.67;;;0.97;;
30147;SDS011;16960;49.404;8.248;2022-11-04T08:49:00;4.03;;;1.20;;
30147;SDS011;16960;49.404;8.248;2022-11-04T08:51:27;2.13;;;1.00;;
30147;SDS011;16960;49.404;8.248;2022-11-04T08:53:55;1.20;;;0.93;;
30147;SDS011;16960;49.404;8.248;2022-11-04T08:56:23;2.97;;;1.03;;
30147;SDS011;16960;49.404;8.248;2022-11-04T08:58:52;1.00;;;0.83;;
30147;SDS011;16960;49.404;8.248;2022-11-04T09:01:19;1.87;;;0.90;;
30147;SDS011;16960;49.404;8.248;2022-11-04T09:03:47;3.13;;;1.27;;
30147;SDS011;16960;49.404;8.248;2022-11-04T09:06:17;3.37;;;1.20;;
30147;SDS011;16960;49.404;8.248;2022-11-04T09:08:45;1.73;;;0.90;;
30147;SDS011;16960;49.404;8.248;2022-11-04T09:11:13;1.57;;;0.80;;
30147;SDS011;16960;49.404;8.248;2022-11-04T09:13:41;1.77;;;0.90;;
30147;SDS011;16960;49.404;8.248;2022-11-04T09:16:09;1.43;;;1.10;;
30147;SDS011;16960;49.404;8.248;2022-11-04T09:18:37;1.53;;;0.93;;
30147;SDS011;16960;49.404;8.248;2022-11-04T09:21:05;1.10;;;0.80;;
30147;SDS011;16960;49.404;8.248;2022-11-04T09:23:35;2.20;;;0.97;;
30147;SDS011;16960;49.404;8.248;2022-11-04T09:26:03;1.83;;;0.87;;
30147;SDS011;16960;49.404;8.248;2022-11-04T09:28:31;1.63;;;1.00;;
30147;SDS011;16960;49.404;8.248;2022-11-04T09:30:58;1.80;;;1.00;;
30147;SDS011;16960;49.404;8.248;2022-11-04T09:33:25;1.40;;;0.90;;
30147;SDS011;16960;49.404;8.248;2022-11-04T09:35:55;1.00;;;0.77;;
30147;SDS011;16960;49.404;8.248;2022-11-04T09:38:22;1.90;;;0.90;;
30147;SDS011;16960;49.404;8.248;2022-11-04T09:40:51;2.53;;;1.10;;
30147;SDS011;16960;49.404;8.248;2022-11-04T09:43:24;2.10;;;1.07;;
30147;SDS011;16960;49.404;8.248;2022-11-04T09:46:07;1.13;;;0.90;;
30147;SDS011;16960;49.404;8.248;2022-11-04T09:48:37;1.67;;;0.77;;
30147;SDS011;16960;49.404;8.248;2022-11-04T09:51:07;0.80;;;0.80;;
30147;SDS011;16960;49.404;8.248;2022-11-04T09:53:36;3.03;;;0.83;;
30147;SDS011;16960;49.404;8.248;2022-11-04T09:56:12;0.70;;;0.60;;
30147;SDS011;16960;49.404;8.248;2022-11-04T09:58:42;4.33;;;0.97;;
30147;SDS011;16960;49.404;8.248;2022-11-04T10:01:13;2.73;;;0.97;;
30147;SDS011;16960;49.404;8.248;2022-11-04T10:04:05;1.77;;;0.90;;
30147;SDS011;16960;49.404;8.248;2022-11-04T10:06:45;1.67;;;1.00;;
30147;SDS011;16960;49.404;8.248;2022-11-04T10:09:36;1.23;;;1.00;;
30147;SDS011;16960;49.404;8.248;2022-11-04T10:12:17;2.97;;;0.90;;
30147;SDS011;16960;49.404;8.248;2022-11-04T10:14:57;1.20;;;0.83;;
30147;SDS011;16960;49.404;8.248;2022-11-04T10:17:42;0.90;;;0.90;;
30147;SDS011;16960;49.404;8.248;2022-11-04T10:20:30;2.27;;;0.90;;
30147;SDS011;16960;49.404;8.248;2022-11-04T10:23:07;1.27;;;0.70;;
30147;SDS011;16960;49.404;8.248;2022-11-04T10:25:43;4.70;;;0.90;;
30147;SDS011;16960;49.404;8.248;2022-11-04T10:28:16;2.73;;;1.00;;
30147;SDS011;16960;49.404;8.248;2022-11-04T10:30:45;1.37;;;0.90;;
30147;SDS011;16960;49.404;8.248;2022-11-04T10:33:21;2.50;;;0.80;;
30147;SDS011;16960;49.404;8.248;2022-11-04T10:35:54;1.00;;;0.70;;
30147;SDS011;16960;49.404;8.248;2022-11-04T10:38:26;1.03;;;0.70;;
30147;SDS011;16960;49.404;8.248;2022-11-04T10:40:59;0.70;;;0.70;;
30147;SDS011;16960;49.404;8.248;2022-11-04T10:43:30;1.27;;;0.70;;
30147;SDS011;16960;49.404;8.248;2022-11-04T10:46:01;1.47;;;0.70;;
30147;SDS011;16960;49.404;8.248;2022-11-04T10:48:42;0.80;;;0.70;;
30147;SDS011;16960;49.404;8.248;2022-11-04T10:51:15;1.83;;;0.83;;
30147;SDS011;16960;49.404;8.248;2022-11-04T10:53:46;2.00;;;1.00;;
30147;SDS011;16960;49.404;8.248;2022-11-04T10:56:16;1.53;;;0.97;;
30147;SDS011;16960;49.404;8.248;2022-11-04T10:58:48;1.77;;;0.90;;
30147;SDS011;16960;49.404;8.248;2022-11-04T11:01:22;1.57;;;0.93;;
30147;SDS011;16960;49.404;8.248;2022-11-04T11:03:51;0.97;;;0.70;;
30147;SDS011;16960;49.404;8.248;2022-11-04T11:06:20;0.60;;;0.50;;
30147;SDS011;16960;49.404;8.248;2022-11-04T11:08:50;0.60;;;0.60;;
30147;SDS011;16960;49.404;8.248;2022-11-04T11:14:04;0.93;;;0.70;;
30147;SDS011;16960;49.404;8.248;2022-11-04T11:16:41;0.70;;;0.60;;
30147;SDS011;16960;49.404;8.248;2022-11-04T11:19:16;1.40;;;0.60;;
30147;SDS011;16960;49.404;8.248;2022-11-04T11:21:45;0.70;;;0.60;;
30147;SDS011;16960;49.404;8.248;2022-11-04T11:24:16;0.63;;;0.63;;
30147;SDS011;16960;49.404;8.248;2022-11-04T11:26:45;1.23;;;0.77;;
30147;SDS011;16960;49.404;8.248;2022-11-04T11:29:19;1.50;;;0.77;;
30147;SDS011;16960;49.404;8.248;2022-11-04T11:31:49;0.70;;;0.60;;
30147;SDS011;16960;49.404;8.248;2022-11-04T11:34:18;2.40;;;0.60;;
30147;SDS011;16960;49.404;8.248;2022-11-04T11:36:50;1.80;;;0.77;;
30147;SDS011;16960;49.404;8.248;2022-11-04T11:39:18;0.80;;;0.70;;
30147;SDS011;16960;49.404;8.248;2022-11-04T11:41:48;1.17;;;0.60;;
30147;SDS011;16960;49.404;8.248;2022-11-04T11:44:21;1.53;;;0.70;;
30147;SDS011;16960;49.404;8.248;2022-11-04T11:46:52;1.00;;;0.90;;
30147;SDS011;16960;49.404;8.248;2022-11-04T11:49:22;1.93;;;1.20;;
30147;SDS011;16960;49.404;8.248;2022-11-04T11:51:52;0.93;;;0.80;;
30147;SDS011;16960;49.404;8.248;2022-11-04T11:54:20;1.87;;;0.70;;
30147;SDS011;16960;49.404;8.248;2022-11-04T11:56:52;0.87;;;0.63;;
30147;SDS011;16960;49.404;8.248;2022-11-04T11:59:27;1.40;;;0.97;;
30147;SDS011;16960;49.404;8.248;2022-11-04T12:02:06;0.70;;;0.50;;
30147;SDS011;16960;49.404;8.248;2022-11-04T12:04:49;0.70;;;0.60;;
30147;SDS011;16960;49.404;8.248;2022-11-04T12:07:19;0.80;;;0.77;;
30147;SDS011;16960;49.404;8.248;2022-11-04T12:09:56;1.00;;;0.60;;
30147;SDS011;16960;49.404;8.248;2022-11-04T12:12:37;0.87;;;0.67;;
30147;SDS011;16960;49.404;8.248;2022-11-04T12:15:21;1.00;;;0.60;;
30147;SDS011;16960;49.404;8.248;2022-11-04T12:18:10;1.50;;;1.00;;
30147;SDS011;16960;49.404;8.248;2022-11-04T12:20:54;2.00;;;0.93;;
30147;SDS011;16960;49.404;8.248;2022-11-04T12:23:30;1.63;;;0.70;;
30147;SDS011;16960;49.404;8.248;2022-11-04T12:26:08;2.50;;;0.70;;
30147;SDS011;16960;49.404;8.248;2022-11-04T12:28:46;1.80;;;0.90;;
30147;SDS011;16960;49.404;8.248;2022-11-04T12:31:30;0.53;;;0.50;;
30147;SDS011;16960;49.404;8.248;2022-11-04T12:34:07;1.43;;;0.73;;
30147;SDS011;16960;49.404;8.248;2022-11-04T12:36:49;0.93;;;0.60;;
30147;SDS011;16960;49.404;8.248;2022-11-04T12:42:25;2.93;;;1.10;;
30147;SDS011;16960;49.404;8.248;2022-11-04T12:45:03;1.23;;;0.73;;
30147;SDS011;16960;49.404;8.248;2022-11-04T12:47:37;0.80;;;0.70;;
30147;SDS011;16960;49.404;8.248;2022-11-04T12:50:12;0.70;;;0.67;;
30147;SDS011;16960;49.404;8.248;2022-11-04T12:56:04;3.53;;;0.70;;
30147;SDS011;16960;49.404;8.248;2022-11-04T12:58:38;0.70;;;0.53;;
30147;SDS011;16960;49.404;8.248;2022-11-04T13:01:30;1.40;;;0.70;;
30147;SDS011;16960;49.404;8.248;2022-11-04T13:04:05;1.23;;;0.77;;
30147;SDS011;16960;49.404;8.248;2022-11-04T13:06:38;0.83;;;0.70;;
30147;SDS011;16960;49.404;8.248;2022-11-04T13:09:10;1.50;;;0.70;;
30147;SDS011;16960;49.404;8.248;2022-11-04T13:11:42;0.70;;;0.60;;
30147;SDS011;16960;49.404;8.248;2022-11-04T13:14:14;1.07;;;0.60;;
30147;SDS011;16960;49.404;8.248;2022-11-04T13:16:46;0.87;;;0.60;;
30147;SDS011;16960;49.404;8.248;2022-11-04T13:19:21;2.80;;;0.90;;
30147;SDS011;16960;49.404;8.248;2022-11-04T13:21:53;1.97;;;0.80;;
30147;SDS011;16960;49.404;8.248;2022-11-04T13:24:23;0.80;;;0.60;;
30147;SDS011;16960;49.404;8.248;2022-11-04T13:26:54;1.80;;;0.93;;
30147;SDS011;16960;49.404;8.248;2022-11-04T13:29:26;0.87;;;0.67;;
30147;SDS011;16960;49.404;8.248;2022-11-04T13:31:57;1.23;;;0.57;;
30147;SDS011;16960;49.404;8.248;2022-11-04T13:34:35;0.60;;;0.60;;
30147;SDS011;16960;49.404;8.248;2022-11-04T13:37:11;0.70;;;0.63;;
30147;SDS011;16960;49.404;8.248;2022-11-04T13:39:46;2.13;;;1.10;;
30147;SDS011;16960;49.404;8.248;2022-11-04T13:45:19;1.43;;;0.40;;
30147;SDS011;16960;49.404;8.248;2022-11-04T13:47:46;5.23;;;0.67;;
30147;SDS011;16960;49.404;8.248;2022-11-04T13:50:33;0.97;;;0.63;;
30147;SDS011;16960;49.404;8.248;2022-11-04T13:53:03;0.93;;;0.50;;
30147;SDS011;16960;49.404;8.248;2022-11-04T13:55:33;2.00;;;0.90;;
30147;SDS011;16960;49.404;8.248;2022-11-04T13:58:01;0.53;;;0.50;;
30147;SDS011;16960;49.404;8.248;2022-11-04T14:00:31;1.10;;;0.90;;
30147;SDS011;16960;49.404;8.248;2022-11-04T14:02:59;1.63;;;0.60;;
30147;SDS011;16960;49.404;8.248;2022-11-04T14:06:16;1.40;;;0.67;;
30147;SDS011;16960;49.404;8.248;2022-11-04T14:14:15;1.10;;;0.80;;
30147;SDS011;16960;49.404;8.248;2022-11-04T14:16:44;0.63;;;0.63;;
30147;SDS011;16960;49.404;8.248;2022-11-04T14:22:36;1.40;;;0.70;;
30147;SDS011;16960;49.404;8.248;2022-11-04T14:25:17;3.03;;;0.73;;
30147;SDS011;16960;49.404;8.248;2022-11-04T14:27:56;1.00;;;0.63;;
30147;SDS011;16960;49.404;8.248;2022-11-04T14:30:43;1.37;;;0.90;;
30147;SDS011;16960;49.404;8.248;2022-11-04T14:33:22;0.67;;;0.50;;
30147;SDS011;16960;49.404;8.248;2022-11-04T14:36:14;1.03;;;0.70;;
30147;SDS011;16960;49.404;8.248;2022-11-04T14:38:51;1.10;;;0.70;;
30147;SDS011;16960;49.404;8.248;2022-11-04T14:41:20;0.60;;;0.60;;
30147;SDS011;16960;49.404;8.248;2022-11-04T14:43:56;0.83;;;0.73;;
30147;SDS011;16960;49.404;8.248;2022-11-04T14:46:27;0.57;;;0.50;;
30147;SDS011;16960;49.404;8.248;2022-11-04T14:48:57;1.27;;;0.90;;
30147;SDS011;16960;49.404;8.248;2022-11-04T14:51:27;1.27;;;0.50;;
30147;SDS011;16960;49.404;8.248;2022-11-04T14:53:58;1.63;;;0.60;;
30147;SDS011;16960;49.404;8.248;2022-11-04T14:56:29;1.10;;;0.70;;
30147;SDS011;16960;49.404;8.248;2022-11-04T14:58:57;1.17;;;0.60;;
30147;SDS011;16960;49.404;8.248;2022-11-04T15:01:27;1.13;;;0.87;;
30147;SDS011;16960;49.404;8.248;2022-11-04T15:03:57;1.30;;;0.77;;
30147;SDS011;16960;49.404;8.248;2022-11-04T15:06:30;1.30;;;0.70;;
30147;SDS011;16960;49.404;8.248;2022-11-04T15:08:57;3.63;;;0.73;;
30147;SDS011;16960;49.404;8.248;2022-11-04T15:11:25;0.77;;;0.57;;
30147;SDS011;16960;49.404;8.248;2022-11-04T15:14:12;1.13;;;0.67;;
30147;SDS011;16960;49.404;8.248;2022-11-04T15:16:42;1.93;;;1.07;;
30147;SDS011;16960;49.404;8.248;2022-11-04T15:19:13;1.27;;;0.77;;
30147;SDS011;16960;49.404;8.248;2022-11-04T15:21:49;1.33;;;0.80;;
30147;SDS011;16960;49.404;8.248;2022-11-04T15:24:16;0.93;;;0.70;;
30147;SDS011;16960;49.404;8.248;2022-11-04T15:26:47;0.87;;;0.70;;
30147;SDS011;16960;49.404;8.248;2022-11-04T15:29:16;1.20;;;0.73;;
30147;SDS011;16960;49.404;8.248;2022-11-04T15:31:54;1.47;;;0.77;;
30147;SDS011;16960;49.404;8.248;2022-11-04T15:34:22;0.97;;;0.70;;
30147;SDS011;16960;49.404;8.248;2022-11-04T15:36:52;2.20;;;1.27;;
30147;SDS011;16960;49.404;8.248;2022-11-04T15:39:23;1.10;;;0.80;;